Time;durP1;ratioP1;P1;durP2;ratioP2;P2;SDS_P1;SDS_P2;PMS_P1;PMS_P2;Temp;Humidity;BMP_temperature;BMP_pressure;BME280_temperature;BME280_humidity;BME280_pressure;Samples;Min_cycle;Max_cycle;Signal;HPM_P1;HPM_P2
2022/11/12 00:00:32;;;;;;;17.98;10.43;;;10.30;99.90;;;;;;4790518;30;20449;-70
2022/11/12 00:02:58;;;;;;;14.65;8.50;;;10.30;99.90;;;;;;4790207;30;20102;-70
2022/11/12 00:05:24;;;;;;;13.38;8.20;;;10.30;99.90;;;;;;4791289;29;20079;-70
2022/11/12 00:07:50;;;;;;;14.13;7.82;;;10.40;99.90;;;;;;4791038;29;20426;-70
2022/11/12 00:10:16;;;;;;;13.20;8.38;;;10.30;99.90;;;;;;4791161;29;20053;-70
2022/11/12 00:12:43;;;;;;;14.85;7.85;;;10.20;99.90;;;;;;4789517;30;20049;-70
2022/11/12 00:15:10;;;;;;;13.38;8.18;;;10.10;99.90;;;;;;4791328;29;20127;-70
2022/11/12 00:17:35;;;;;;;14.70;8.57;;;10.10;99.90;;;;;;4791057;29;20075;-70
2022/11/12 00:20:02;;;;;;;15.07;8.35;;;10.00;99.90;;;;;;4794770;29;20083;-70
2022/11/12 00:22:27;;;;;;;20.70;10.40;;;10.00;99.90;;;;;;4794655;29;20069;-70
2022/11/12 00:24:53;;;;;;;13.40;7.82;;;10.10;99.90;;;;;;4794539;29;20407;-70
2022/11/12 00:27:19;;;;;;;14.55;8.13;;;10.10;99.90;;;;;;4794783;29;20388;-70
2022/11/12 00:29:44;;;;;;;13.90;8.65;;;10.10;99.90;;;;;;4793405;30;20404;-70
2022/11/12 00:32:11;;;;;;;17.48;9.07;;;10.10;99.90;;;;;;4794728;29;20083;-70
2022/11/12 00:34:36;;;;;;;17.92;8.63;;;10.20;99.90;;;;;;4794322;29;20047;-70
2022/11/12 00:37:02;;;;;;;16.20;9.15;;;10.20;99.90;;;;;;4794636;29;20039;-70
2022/11/12 00:39:28;;;;;;;18.42;9.50;;;10.20;99.90;;;;;;4794150;29;20426;-70
2022/11/12 00:41:54;;;;;;;17.52;10.77;;;10.20;99.90;;;;;;4793125;30;20051;-70
2022/11/12 00:44:20;;;;;;;19.35;10.85;;;10.10;99.90;;;;;;4794525;29;20047;-70
2022/11/12 00:46:46;;;;;;;14.52;9.30;;;10.20;99.90;;;;;;4794243;29;20051;-70
2022/11/12 00:49:12;;;;;;;14.30;9.02;;;10.20;99.90;;;;;;4793183;29;20051;-70
2022/11/12 00:51:38;;;;;;;14.60;9.05;;;10.00;99.90;;;;;;4793951;29;20043;-70
2022/11/12 00:54:04;;;;;;;20.98;11.00;;;9.90;99.90;;;;;;4794252;29;20104;-70
2022/11/12 00:56:30;;;;;;;17.90;10.88;;;9.90;99.90;;;;;;4794153;29;20128;-70
2022/11/12 00:58:57;;;;;;;13.88;9.13;;;9.90;99.90;;;;;;4794217;29;20086;-70
2022/11/12 01:01:23;;;;;;;15.50;9.43;;;9.80;99.90;;;;;;4794216;29;20044;-69
2022/11/12 01:03:49;;;;;;;15.23;8.45;;;9.80;99.90;;;;;;4793708;29;20043;-70
2022/11/12 01:06:22;;;;;;;15.93;9.20;;;9.70;99.90;;;;;;4793925;29;20047;-70
2022/11/12 01:08:48;;;;;;;23.10;11.23;;;9.70;99.90;;;;;;4793738;29;20337;-70
2022/11/12 01:11:15;;;;;;;16.50;10.57;;;9.80;99.90;;;;;;4793697;29;20043;-70
2022/11/12 01:13:44;;;;;;;16.05;9.48;;;9.70;99.90;;;;;;4793430;30;20131;-70
2022/11/12 01:16:16;;;;;;;17.35;10.13;;;9.70;99.90;;;;;;4793795;29;20039;-70
2022/11/12 01:18:42;;;;;;;16.55;9.20;;;9.80;99.90;;;;;;4793415;29;20091;-70
2022/11/12 01:21:09;;;;;;;13.82;9.27;;;9.70;99.90;;;;;;4793702;29;20047;-72
2022/11/12 01:23:37;;;;;;;20.33;11.73;;;9.80;99.90;;;;;;4794022;29;20051;-70
2022/11/12 01:26:04;;;;;;;14.55;8.73;;;9.70;99.90;;;;;;4793466;29;20339;-70
2022/11/12 01:28:30;;;;;;;16.45;9.70;;;9.70;99.90;;;;;;4792871;30;20162;-70
2022/11/12 01:30:55;;;;;;;16.58;10.45;;;9.70;99.90;;;;;;4792686;29;20135;-70
2022/11/12 01:33:21;;;;;;;17.70;10.23;;;9.70;99.90;;;;;;4793633;29;20051;-70
2022/11/12 01:35:47;;;;;;;21.08;11.98;;;9.70;99.90;;;;;;4793328;30;20051;-70
2022/11/12 01:38:12;;;;;;;12.98;8.40;;;9.70;99.90;;;;;;4793475;29;20039;-70
2022/11/12 01:40:38;;;;;;;15.20;9.00;;;9.70;99.90;;;;;;4793574;29;20096;-70
2022/11/12 01:43:10;;;;;;;17.15;10.20;;;9.70;99.90;;;;;;4792953;29;20130;-70
2022/11/12 01:45:44;;;;;;;16.73;10.13;;;9.70;99.90;;;;;;4793500;29;20047;-70
2022/11/12 01:48:24;;;;;;;16.70;9.80;;;9.70;99.90;;;;;;4793217;30;20054;-70
2022/11/12 01:50:51;;;;;;;13.50;9.43;;;9.70;99.90;;;;;;4793458;30;20074;-70
2022/11/12 01:53:17;;;;;;;18.33;8.75;;;9.50;99.90;;;;;;4792952;29;20122;-70
2022/11/12 01:55:43;;;;;;;15.98;9.55;;;9.50;99.90;;;;;;4793021;30;20452;-70
2022/11/12 01:58:15;;;;;;;14.35;8.73;;;9.50;99.90;;;;;;4793278;29;20043;-70
2022/11/12 02:00:40;;;;;;;11.48;8.38;;;9.60;99.90;;;;;;4792034;30;20099;-70
2022/11/12 02:03:20;;;;;;;16.67;9.98;;;9.50;99.90;;;;;;4793147;29;20047;-70
2022/11/12 02:05:48;;;;;;;13.85;8.80;;;9.40;99.90;;;;;;4792864;30;20050;-70
2022/11/12 02:08:14;;;;;;;14.30;9.43;;;9.30;99.90;;;;;;4792986;29;20051;-71
2022/11/12 02:10:40;;;;;;;18.45;9.23;;;9.30;99.90;;;;;;4792776;29;20104;-70
2022/11/12 02:15:51;;;;;;;14.25;8.35;;;9.40;99.90;;;;;;4792882;29;20101;-70
2022/11/12 02:18:17;;;;;;;14.95;8.95;;;9.30;99.90;;;;;;4792641;29;20450;-70
2022/11/12 02:20:43;;;;;;;15.95;8.60;;;9.30;99.90;;;;;;4792786;30;20047;-70
2022/11/12 02:23:09;;;;;;;13.52;8.00;;;9.30;99.90;;;;;;4791662;30;20047;-70
2022/11/12 02:25:35;;;;;;;18.27;9.75;;;9.20;99.90;;;;;;4792708;29;20154;-70
2022/11/12 02:28:05;;;;;;;13.27;8.57;;;9.20;99.90;;;;;;4792445;29;20128;-70
2022/11/12 02:30:37;;;;;;;14.02;9.63;;;9.10;99.90;;;;;;4792656;29;20079;-70
2022/11/12 02:33:02;;;;;;;14.13;8.52;;;9.10;99.90;;;;;;4792485;30;20048;-70
2022/11/12 02:35:29;;;;;;;16.20;8.93;;;9.10;99.90;;;;;;4792681;29;20048;-70
2022/11/12 02:37:54;;;;;;;12.38;8.13;;;9.00;99.90;;;;;;4792278;30;20176;-70
2022/11/12 02:40:21;;;;;;;17.92;9.13;;;9.10;99.90;;;;;;4792353;30;20138;-70
2022/11/12 02:42:46;;;;;;;13.90;8.48;;;9.00;99.90;;;;;;4790641;30;20066;-70
2022/11/12 02:45:12;;;;;;;12.82;8.80;;;9.00;99.90;;;;;;4792404;30;20373;-70
2022/11/12 02:47:38;;;;;;;14.77;8.57;;;8.90;99.90;;;;;;4792226;29;20452;-70
2022/11/12 02:50:04;;;;;;;15.48;8.98;;;8.90;99.90;;;;;;4791323;30;20047;-70
2022/11/12 02:52:31;;;;;;;12.27;8.30;;;8.90;99.90;;;;;;4792263;29;20042;-69
2022/11/12 02:54:57;;;;;;;14.52;8.27;;;8.90;99.90;;;;;;4792111;29;20047;-70
2022/11/12 02:57:23;;;;;;;14.25;8.35;;;8.80;99.90;;;;;;4792553;30;20448;-70
2022/11/12 02:59:48;;;;;;;14.82;7.55;;;8.90;99.90;;;;;;4791954;30;20104;-70
2022/11/12 03:02:14;;;;;;;15.48;9.57;;;8.90;99.90;;;;;;4792149;30;20043;-70
2022/11/12 03:04:40;;;;;;;16.85;8.50;;;9.00;99.90;;;;;;4791819;29;20047;-70
2022/11/12 03:07:05;;;;;;;12.70;8.38;;;9.00;99.90;;;;;;4791945;29;20047;-70
2022/11/12 03:09:31;;;;;;;10.98;7.75;;;8.90;99.90;;;;;;4790888;30;20047;-70
2022/11/12 03:11:57;;;;;;;17.83;9.25;;;8.70;99.90;;;;;;4791445;29;20047;-70
2022/11/12 03:14:23;;;;;;;17.10;8.07;;;8.70;99.90;;;;;;4791835;29;20134;-70
2022/11/12 03:16:49;;;;;;;16.80;9.38;;;8.60;99.90;;;;;;4791631;30;20374;-69
2022/11/12 03:19:14;;;;;;;15.63;9.70;;;8.50;99.90;;;;;;4791435;30;20055;-70
2022/11/12 03:21:40;;;;;;;11.77;8.40;;;8.50;99.90;;;;;;4791759;29;20047;-70
2022/11/12 03:24:06;;;;;;;13.32;7.85;;;8.60;99.90;;;;;;4791534;30;20083;-70
2022/11/12 03:26:31;;;;;;;11.13;7.22;;;8.50;99.90;;;;;;4791364;29;20062;-70
2022/11/12 03:28:57;;;;;;;12.45;7.18;;;8.60;99.90;;;;;;4791510;30;20394;-70
2022/11/12 03:31:23;;;;;;;13.43;8.05;;;8.60;99.90;;;;;;4791535;29;20120;-70
2022/11/12 03:33:48;;;;;;;12.85;8.25;;;8.50;99.90;;;;;;4791391;30;20047;-70
2022/11/12 03:36:14;;;;;;;15.18;8.45;;;8.50;99.90;;;;;;4791555;29;20342;-69
2022/11/12 03:38:40;;;;;;;13.07;8.10;;;8.40;99.90;;;;;;4775465;30;20349;-70
2022/11/12 03:41:05;;;;;;;12.98;8.55;;;8.40;99.90;;;;;;4791412;29;20100;-70
2022/11/12 03:43:31;;;;;;;13.32;8.57;;;8.40;99.90;;;;;;4790992;29;20051;-70
2022/11/12 03:45:57;;;;;;;15.10;8.80;;;8.40;99.90;;;;;;4791565;30;20051;-70
2022/11/12 03:48:22;;;;;;;18.05;9.52;;;8.40;99.90;;;;;;4791267;30;20441;-69
2022/11/12 03:50:48;;;;;;;13.38;8.23;;;8.40;99.90;;;;;;4791453;29;20344;-70
2022/11/12 03:53:14;;;;;;;16.50;9.43;;;8.30;99.90;;;;;;4791013;29;20505;-69
2022/11/12 03:55:39;;;;;;;12.43;8.38;;;8.30;99.90;;;;;;4791252;30;20047;-70
2022/11/12 03:58:05;;;;;;;13.85;9.13;;;8.30;99.90;;;;;;4791401;30;20039;-69
2022/11/12 04:00:31;;;;;;;16.65;8.60;;;8.30;99.90;;;;;;4791215;29;20044;-69
2022/11/12 04:02:57;;;;;;;13.68;8.88;;;8.20;99.90;;;;;;4791408;30;20046;-70
2022/11/12 04:08:36;;;;;;;18.33;9.38;;;8.00;99.90;;;;;;4789174;30;20047;-70
2022/11/12 04:11:14;;;;;;;14.02;9.45;;;8.10;99.90;;;;;;4790978;29;20051;-69
2022/11/12 04:13:41;;;;;;;14.00;8.77;;;8.10;99.90;;;;;;4790553;29;20047;-69
2022/11/12 04:21:51;;;;;;;;;;;8.00;99.90;;;;;;4791541;29;20086;-69
2022/11/12 04:27:19;;;;;;;14.80;8.80;;;8.00;99.90;;;;;;4790945;29;20070;-70
2022/11/12 04:32:32;;;;;;;14.02;8.85;;;8.10;99.90;;;;;;4791153;29;20054;-70
2022/11/12 04:34:58;;;;;;;15.18;9.15;;;8.10;99.90;;;;;;4789922;30;20366;-69
2022/11/12 04:37:26;;;;;;;15.32;8.82;;;8.10;99.90;;;;;;4789776;30;20043;-70
2022/11/12 04:39:52;;;;;;;16.25;8.82;;;8.00;99.90;;;;;;4789782;30;20043;-69
2022/11/12 04:45:07;;;;;;;15.55;9.10;;;8.00;99.90;;;;;;4790775;29;20053;-69
2022/11/12 04:47:39;;;;;;;18.98;10.70;;;8.00;99.90;;;;;;4790678;30;20434;-69
2022/11/12 04:50:11;;;;;;;16.08;9.15;;;8.00;99.90;;;;;;4790730;30;20112;-69
2022/11/12 04:52:37;;;;;;;17.00;9.70;;;7.90;99.90;;;;;;4790765;29;20319;-70
2022/11/12 04:55:03;;;;;;;15.98;10.30;;;8.00;99.90;;;;;;4789994;30;20058;-69
2022/11/12 04:57:28;;;;;;;18.10;9.90;;;8.00;99.90;;;;;;4790683;29;20426;-69
2022/11/12 04:59:54;;;;;;;17.75;9.27;;;8.10;99.90;;;;;;4790645;30;20054;-70
2022/11/12 05:02:20;;;;;;;13.90;9.18;;;8.10;99.90;;;;;;4774870;30;20048;-70
2022/11/12 05:04:46;;;;;;;15.43;9.32;;;8.00;99.90;;;;;;4790289;29;20392;-69
2022/11/12 05:07:12;;;;;;;14.85;9.57;;;7.90;99.90;;;;;;4793903;29;20047;-69
2022/11/12 05:09:38;;;;;;;16.98;10.77;;;7.90;99.90;;;;;;4793943;29;20051;-70
2022/11/12 05:12:04;;;;;;;14.50;10.40;;;8.00;99.90;;;;;;4793539;29;20051;-70
2022/11/12 05:14:30;;;;;;;15.35;9.95;;;8.00;99.90;;;;;;4793631;29;20047;-70
2022/11/12 05:16:56;;;;;;;13.57;9.40;;;8.00;99.90;;;;;;4793662;29;20043;-70
2022/11/12 05:19:21;;;;;;;16.83;9.55;;;7.90;99.90;;;;;;4793559;29;20063;-70
2022/11/12 05:22:06;;;;;;;20.52;12.07;;;7.90;99.90;;;;;;4793575;29;20342;-71
2022/11/12 05:24:33;;;;;;;15.95;9.95;;;8.00;99.90;;;;;;4793866;30;20070;-70
2022/11/12 05:26:59;;;;;;;16.15;9.70;;;8.00;99.90;;;;;;4793530;29;20468;-69
2022/11/12 05:29:24;;;;;;;14.93;9.02;;;8.00;99.90;;;;;;4793543;29;20058;-70
2022/11/12 05:31:50;;;;;;;16.77;9.15;;;8.00;99.90;;;;;;4793721;29;20055;-69
2022/11/12 05:34:16;;;;;;;14.80;9.85;;;8.00;99.90;;;;;;4793348;30;20051;-70
2022/11/12 05:36:41;;;;;;;16.23;10.02;;;8.00;99.90;;;;;;4793266;29;20081;-69
2022/11/12 05:39:07;;;;;;;14.55;9.48;;;8.00;99.90;;;;;;4793680;30;20051;-69
2022/11/12 05:41:33;;;;;;;14.43;9.95;;;8.00;99.90;;;;;;4793334;30;20047;-69
2022/11/12 05:43:58;;;;;;;17.15;10.80;;;7.90;99.90;;;;;;4792039;30;20152;-70
2022/11/12 05:46:24;;;;;;;14.80;9.25;;;7.80;99.90;;;;;;4793157;29;20047;-70
2022/11/12 05:48:50;;;;;;;16.05;9.35;;;7.80;99.90;;;;;;4792482;30;20047;-70
2022/11/12 05:51:15;;;;;;;17.70;9.65;;;7.80;99.90;;;;;;4793272;29;20062;-70
2022/11/12 05:53:42;;;;;;;17.02;9.90;;;7.80;99.90;;;;;;4793075;29;20073;-70
2022/11/12 05:56:08;;;;;;;16.60;9.68;;;7.90;99.90;;;;;;4792400;30;20043;-69
2022/11/12 05:58:35;;;;;;;17.08;10.77;;;7.90;99.90;;;;;;4793027;29;20430;-70
2022/11/12 06:01:01;;;;;;;15.48;10.02;;;7.90;99.90;;;;;;4793292;29;20108;-69
2022/11/12 06:03:26;;;;;;;15.27;9.68;;;7.90;99.90;;;;;;4793124;29;20338;-69
2022/11/12 06:05:52;;;;;;;15.77;9.88;;;7.90;99.90;;;;;;4793065;29;20047;-69
2022/11/12 06:08:18;;;;;;;16.65;9.93;;;7.90;99.90;;;;;;4792867;29;20384;-70
2022/11/12 06:10:54;;;;;;;19.58;11.73;;;8.00;99.90;;;;;;4792750;29;20130;-70
2022/11/12 06:13:21;;;;;;;14.85;10.18;;;8.10;99.90;;;;;;4792218;29;20442;-70
2022/11/12 06:15:47;;;;;;;19.02;11.75;;;8.10;99.90;;;;;;4792502;29;20043;-70
2022/11/12 06:18:13;;;;;;;16.65;10.38;;;8.00;99.90;;;;;;4792479;30;20064;-69
2022/11/12 06:20:39;;;;;;;16.00;10.45;;;8.00;99.90;;;;;;4792714;29;20131;-70
2022/11/12 06:23:04;;;;;;;22.42;13.73;;;8.00;99.90;;;;;;4792859;30;20114;-69
2022/11/12 06:25:30;;;;;;;22.92;12.55;;;8.00;99.90;;;;;;4792584;29;20416;-69
2022/11/12 06:27:56;;;;;;;18.42;11.30;;;8.10;99.90;;;;;;4792569;29;20438;-69
2022/11/12 06:30:22;;;;;;;18.77;11.38;;;8.10;99.90;;;;;;4791437;30;20070;-69
2022/11/12 06:32:49;;;;;;;21.30;12.05;;;8.10;99.90;;;;;;4791372;30;20048;-70
2022/11/12 06:35:16;;;;;;;18.13;11.25;;;8.00;99.90;;;;;;4792460;29;20051;-70
2022/11/12 06:37:42;;;;;;;19.10;11.85;;;8.10;99.90;;;;;;4791533;30;20118;-69
2022/11/12 06:40:08;;;;;;;17.33;10.57;;;8.00;99.90;;;;;;4792368;29;20078;-69
2022/11/12 06:42:34;;;;;;;18.48;11.63;;;8.00;99.90;;;;;;4791799;29;20039;-70
2022/11/12 06:45:00;;;;;;;18.38;10.70;;;8.00;99.90;;;;;;4792540;30;20130;-69
2022/11/12 06:47:25;;;;;;;17.10;10.88;;;8.10;99.90;;;;;;4792191;29;20062;-69
2022/11/12 06:49:51;;;;;;;18.27;10.48;;;8.00;99.90;;;;;;4792241;29;20047;-69
2022/11/12 06:52:17;;;;;;;15.55;10.43;;;7.90;99.90;;;;;;4792341;30;20050;-69
2022/11/12 06:54:44;;;;;;;20.55;10.98;;;7.90;99.90;;;;;;4792092;30;20047;-69
2022/11/12 06:57:10;;;;;;;16.10;10.15;;;7.90;99.90;;;;;;4792086;29;20130;-69
2022/11/12 06:59:36;;;;;;;15.95;9.82;;;7.90;99.90;;;;;;4792128;29;20035;-70
2022/11/12 07:02:01;;;;;;;16.05;9.88;;;8.00;99.90;;;;;;4792103;29;20346;-69
2022/11/12 07:04:27;;;;;;;16.80;9.73;;;8.00;99.90;;;;;;4791970;29;20346;-69
2022/11/12 07:06:53;;;;;;;19.08;10.70;;;8.00;99.90;;;;;;4791933;29;20047;-69
2022/11/12 07:09:18;;;;;;;14.98;9.45;;;8.00;99.90;;;;;;4791982;29;20051;-69
2022/11/12 07:11:44;;;;;;;15.13;9.77;;;8.10;99.90;;;;;;4791829;29;20051;-70
2022/11/12 07:14:10;;;;;;;13.35;9.02;;;8.20;99.90;;;;;;4791407;29;20398;-70
2022/11/12 07:16:35;;;;;;;15.07;9.35;;;8.20;99.90;;;;;;4791922;30;20043;-70
2022/11/12 07:19:01;;;;;;;18.20;11.23;;;8.30;99.90;;;;;;4791631;29;20055;-69
2022/11/12 07:21:27;;;;;;;16.58;10.27;;;8.00;99.90;;;;;;4791923;29;20062;-69
2022/11/12 07:23:53;;;;;;;15.43;9.73;;;8.10;99.90;;;;;;4791619;29;20104;-69
2022/11/12 07:26:26;;;;;;;19.77;10.95;;;8.10;99.90;;;;;;4790463;30;20127;-70
2022/11/12 07:28:52;;;;;;;23.85;12.05;;;8.10;99.90;;;;;;4790086;30;20062;-69
2022/11/12 07:31:19;;;;;;;43.13;12.55;;;8.20;99.90;;;;;;4787912;30;20337;-71
2022/11/12 07:33:47;;;;;;;33.70;12.13;;;8.20;99.90;;;;;;4778959;29;20054;-70
2022/11/12 07:36:15;;;;;;;45.85;14.40;;;8.10;99.90;;;;;;4782400;30;20059;-69
2022/11/12 07:38:42;;;;;;;38.75;14.20;;;8.20;99.90;;;;;;4784803;30;20076;-70
2022/11/12 07:41:17;;;;;;;28.63;13.02;;;8.40;99.90;;;;;;4791504;29;20328;-69
2022/11/12 07:43:45;;;;;;;60.13;15.40;;;8.60;99.90;;;;;;4788913;29;20046;-70
2022/11/12 07:46:13;;;;;;;31.15;13.70;;;8.50;99.90;;;;;;4780871;30;20093;-69
2022/11/12 07:48:39;;;;;;;32.50;14.80;;;8.50;99.90;;;;;;4780775;30;20134;-70
2022/11/12 07:51:10;;;;;;;33.38;14.18;;;8.60;99.90;;;;;;4782084;29;20173;-69
2022/11/12 07:53:36;;;;;;;24.75;13.73;;;8.60;99.90;;;;;;4781453;30;20047;-67
2022/11/12 07:56:03;;;;;;;31.73;15.65;;;8.70;99.90;;;;;;4780921;30;20055;-68
2022/11/12 07:58:31;;;;;;;31.17;15.98;;;8.80;99.90;;;;;;4782466;30;20132;-67
2022/11/12 08:00:57;;;;;;;29.30;15.57;;;8.90;99.90;;;;;;4780839;29;20044;-67
2022/11/12 08:03:23;;;;;;;31.83;17.10;;;8.90;99.90;;;;;;4782764;30;20121;-67
2022/11/12 08:05:49;;;;;;;146.13;27.73;;;9.10;99.90;;;;;;4780590;30;20075;-70
2022/11/12 08:08:15;;;;;;;70.13;23.55;;;9.20;99.90;;;;;;4774101;29;20123;-67
2022/11/12 08:10:41;;;;;;;76.57;23.00;;;9.20;99.90;;;;;;4773324;30;20056;-67
2022/11/12 08:13:07;;;;;;;51.95;21.63;;;9.30;99.90;;;;;;4771943;30;20048;-67
2022/11/12 08:15:32;;;;;;;37.67;20.10;;;9.40;99.90;;;;;;4773058;30;20051;-67
2022/11/12 08:17:58;;;;;;;53.22;20.90;;;9.60;99.90;;;;;;4772947;30;20087;-67
2022/11/12 08:20:24;;;;;;;41.60;20.40;;;9.70;99.90;;;;;;4772254;30;20051;-68
2022/11/12 08:22:49;;;;;;;46.08;20.90;;;9.70;99.90;;;;;;4772993;30;20220;-67
2022/11/12 08:25:15;;;;;;;43.20;19.95;;;9.80;99.90;;;;;;4772144;30;20047;-67
2022/11/12 08:27:41;;;;;;;39.58;19.15;;;9.70;99.90;;;;;;4773199;30;20047;-68
2022/11/12 08:30:07;;;;;;;43.53;19.95;;;9.60;99.90;;;;;;4757351;30;20140;-67
2022/11/12 08:32:33;;;;;;;57.78;21.23;;;9.60;99.90;;;;;;4773057;30;20076;-67
2022/11/12 08:34:59;;;;;;;56.00;20.25;;;9.50;99.90;;;;;;4772178;30;20087;-68
2022/11/12 08:37:25;;;;;;;64.35;20.73;;;9.30;99.90;;;;;;4773037;30;20044;-67
2022/11/12 08:39:50;;;;;;;33.60;17.63;;;9.00;99.90;;;;;;4774034;30;20055;-67
2022/11/12 08:42:16;;;;;;;37.85;17.23;;;8.90;99.90;;;;;;4776558;30;20047;-67
2022/11/12 08:44:41;;;;;;;41.67;18.88;;;9.00;99.90;;;;;;4775203;30;20139;-67
2022/11/12 08:47:07;;;;;;;123.97;27.65;;;9.20;99.90;;;;;;4776173;30;20453;-67
2022/11/12 08:49:33;;;;;;;39.95;19.48;;;9.30;99.90;;;;;;4775314;30;20093;-67
2022/11/12 08:51:58;;;;;;;40.67;18.95;;;9.40;99.90;;;;;;4775106;30;20178;-67
2022/11/12 08:54:24;;;;;;;37.25;18.67;;;9.50;99.90;;;;;;4785925;30;20047;-68
2022/11/12 08:56:50;;;;;;;70.40;23.60;;;9.70;99.90;;;;;;4786735;30;20054;-70
2022/11/12 08:59:16;;;;;;;48.50;20.73;;;9.80;99.90;;;;;;4790855;30;20072;-71
2022/11/12 09:01:41;;;;;;;80.88;24.27;;;9.90;99.90;;;;;;4793215;30;20035;-67
2022/11/12 09:04:07;;;;;;;55.08;21.73;;;10.00;99.90;;;;;;4793189;30;20078;-67
2022/11/12 09:06:33;;;;;;;39.58;19.35;;;10.00;99.90;;;;;;4793079;30;20118;-67
2022/11/12 09:08:58;;;;;;;53.00;21.55;;;10.10;99.90;;;;;;4794040;29;20054;-67
2022/11/12 09:11:24;;;;;;;96.45;25.48;;;10.20;99.90;;;;;;4777906;30;20047;-67
2022/11/12 09:13:52;;;;;;;54.00;20.83;;;10.30;99.90;;;;;;4793326;30;20051;-67
2022/11/12 09:16:20;;;;;;;48.10;20.00;;;10.40;99.90;;;;;;4793807;30;20502;-68
2022/11/12 09:18:46;;;;;;;139.82;29.90;;;10.50;99.90;;;;;;4793619;29;20063;-67
2022/11/12 09:21:13;;;;;;;53.05;23.50;;;10.60;99.90;;;;;;4793083;30;20059;-68
2022/11/12 09:23:39;;;;;;;75.63;24.40;;;10.60;99.90;;;;;;4793884;30;20049;-67
2022/11/12 09:26:05;;;;;;;105.50;28.48;;;10.70;99.90;;;;;;4793747;29;20082;-67
2022/11/12 09:28:31;;;;;;;46.75;22.05;;;10.70;99.90;;;;;;4793790;29;20047;-67
2022/11/12 09:30:58;;;;;;;87.90;27.15;;;10.70;99.90;;;;;;4793570;29;20043;-67
2022/11/12 09:33:27;;;;;;;120.68;29.35;;;10.70;99.90;;;;;;4793489;30;20051;-68
2022/11/12 09:35:53;;;;;;;139.77;30.45;;;10.80;99.90;;;;;;4793451;30;20039;-68
2022/11/12 09:38:19;;;;;;;67.03;24.67;;;10.70;99.90;;;;;;4793497;30;20043;-68
2022/11/12 09:40:51;;;;;;;63.80;23.40;;;10.70;99.90;;;;;;4793629;29;20092;-67
2022/11/12 09:43:17;;;;;;;54.65;23.10;;;10.80;99.90;;;;;;4793050;30;20057;-67
2022/11/12 09:45:44;;;;;;;102.60;24.83;;;10.60;99.90;;;;;;4793374;29;20047;-67
2022/11/12 09:48:14;;;;;;;51.97;21.92;;;10.60;99.90;;;;;;4793129;29;20043;-68
2022/11/12 09:50:59;;;;;;;155.63;31.70;;;10.50;99.90;;;;;;4792734;29;20047;-67
2022/11/12 09:53:34;;;;;;;85.85;26.10;;;10.60;99.90;;;;;;4793217;30;20051;-67
2022/11/12 09:56:04;;;;;;;60.10;22.67;;;10.50;99.90;;;;;;4793069;29;20079;-67
2022/11/12 09:58:29;;;;;;;62.60;22.98;;;10.50;99.90;;;;;;4791908;30;20079;-68
2022/11/12 10:01:02;;;;;;;54.70;22.83;;;10.50;99.90;;;;;;4792144;30;20124;-68
2022/11/12 10:03:43;;;;;;;51.90;22.83;;;10.70;99.90;;;;;;4791966;30;20055;-68
2022/11/12 10:06:19;;;;;;;58.85;23.38;;;10.70;99.90;;;;;;4792934;29;20051;-68
2022/11/12 10:09:08;;;;;;;49.28;20.60;;;10.60;99.90;;;;;;4792161;30;20160;-68
2022/11/12 10:12:31;;;;;;;66.03;23.23;;;10.50;99.90;;;;;;4792201;30;20043;-68
2022/11/12 10:18:17;;;;;;;59.83;20.83;;;10.30;99.90;;;;;;4792869;29;20349;-68
2022/11/12 10:20:55;;;;;;;126.15;27.50;;;10.40;99.90;;;;;;4792847;29;20063;-67
2022/11/12 10:23:26;;;;;;;113.88;27.42;;;10.60;99.90;;;;;;4792446;29;20043;-67
2022/11/12 10:25:56;;;;;;;59.53;24.90;;;10.60;99.90;;;;;;4792831;30;20426;-70
2022/11/12 10:28:30;;;;;;;99.43;26.33;;;10.60;99.90;;;;;;4792573;30;20108;-67
2022/11/12 10:31:06;;;;;;;54.97;22.08;;;10.60;99.90;;;;;;4785674;30;20322;-67
2022/11/12 10:33:32;;;;;;;80.90;24.88;;;10.50;99.90;;;;;;4784605;30;20052;-67
2022/11/12 10:36:23;;;;;;;50.65;21.98;;;10.60;99.90;;;;;;4781131;30;20460;-71
2022/11/12 10:38:52;;;;;;;75.47;24.80;;;10.70;99.90;;;;;;4792131;30;20047;-68
2022/11/12 10:41:29;;;;;;;53.75;25.30;;;10.70;99.90;;;;;;4791897;29;20047;-67
2022/11/12 10:44:03;;;;;;;83.43;26.13;;;10.60;99.90;;;;;;4791825;29;20148;-67
2022/11/12 10:46:38;;;;;;;49.15;21.30;;;10.70;99.90;;;;;;4792085;30;20051;-67
2022/11/12 10:49:14;;;;;;;50.08;22.48;;;10.50;99.90;;;;;;4792042;30;20054;-68
2022/11/12 10:51:40;;;;;;;72.18;26.58;;;10.70;99.90;;;;;;4791267;30;20066;-68
2022/11/12 10:54:35;;;;;;;57.20;26.52;;;10.90;99.90;;;;;;4774298;30;20051;-68
2022/11/12 10:57:23;;;;;;;54.20;24.38;;;10.90;99.90;;;;;;4772778;30;20047;-68
2022/11/12 11:00:06;;;;;;;63.65;24.55;;;10.90;99.90;;;;;;4773965;30;20036;-68
2022/11/12 11:02:32;;;;;;;52.78;23.60;;;10.80;99.90;;;;;;4772990;30;20343;-68
2022/11/12 11:04:57;;;;;;;37.97;21.70;;;10.90;99.90;;;;;;4773863;30;20055;-68
2022/11/12 11:07:25;;;;;;;44.53;24.77;;;10.70;99.90;;;;;;4772483;30;20051;-68
2022/11/12 11:09:53;;;;;;;41.78;23.63;;;10.60;99.90;;;;;;4781596;30;20445;-67
2022/11/12 11:12:32;;;;;;;48.40;25.67;;;10.80;99.90;;;;;;4790749;30;20058;-68
2022/11/12 11:15:06;;;;;;;51.13;23.20;;;10.90;99.90;;;;;;4791124;29;20139;-68
2022/11/12 11:17:33;;;;;;;41.97;23.80;;;10.80;99.90;;;;;;4790722;29;20050;-68
2022/11/12 11:19:59;;;;;;;44.63;23.65;;;10.60;99.90;;;;;;4790323;30;20116;-67
2022/11/12 11:22:40;;;;;;;39.45;24.10;;;10.40;99.90;;;;;;4775759;30;20307;-67
2022/11/12 11:25:32;;;;;;;39.72;22.98;;;10.30;99.90;;;;;;4791959;29;20043;-67
2022/11/12 11:28:43;;;;;;;40.90;23.90;;;10.50;99.90;;;;;;4788942;30;20059;-67
2022/11/12 11:31:20;;;;;;;48.22;25.70;;;10.70;99.90;;;;;;4790748;30;20062;-68
2022/11/12 11:33:56;;;;;;;53.35;25.73;;;10.70;99.90;;;;;;4791699;30;20051;-67
2022/11/12 11:36:41;;;;;;;50.22;26.80;;;10.60;99.90;;;;;;4791581;30;20050;-67
2022/11/12 11:39:30;;;;;;;47.35;26.52;;;10.70;99.90;;;;;;4791501;29;20498;-68
2022/11/12 11:42:22;;;;;;;69.68;31.30;;;10.60;99.90;;;;;;4791496;29;20035;-67
2022/11/12 11:44:58;;;;;;;48.65;26.77;;;10.60;99.90;;;;;;4781795;30;20092;-69
2022/11/12 11:47:32;;;;;;;;;;;10.50;99.90;;;;;;4792017;30;20054;-67
2022/11/12 11:50:18;;;;;;;48.22;27.40;;;10.70;99.90;;;;;;4791257;29;19932;-68
2022/11/12 11:53:20;;;;;;;255.32;79.70;;;10.80;99.90;;;;;;4791400;29;20403;-71
2022/11/12 11:55:57;;;;;;;44.83;26.83;;;11.00;99.90;;;;;;4791435;29;20054;-67
2022/11/12 11:58:44;;;;;;;60.08;30.83;;;11.30;99.90;;;;;;4790302;30;20039;-69
2022/11/12 12:01:10;;;;;;;;;;;11.30;99.90;;;;;;4791933;30;20141;-69
2022/11/12 12:04:11;;;;;;;48.90;27.87;;;11.30;99.90;;;;;;4791266;30;20023;-70
2022/11/12 12:06:49;;;;;;;43.05;27.17;;;11.10;99.90;;;;;;4791163;29;20315;-71
2022/11/12 12:09:26;;;;;;;48.22;26.52;;;11.10;99.90;;;;;;4791056;30;20130;-70
2022/11/12 12:12:11;;;;;;;45.88;25.02;;;11.20;99.90;;;;;;4790263;30;20055;-70
2022/11/12 12:15:08;;;;;;;44.53;26.60;;;11.30;99.90;;;;;;4792538;29;20055;-69
2022/11/12 12:17:36;;;;;;;59.33;30.27;;;11.30;99.90;;;;;;4794808;29;20465;-69
2022/11/12 12:20:20;;;;;;;52.80;29.38;;;11.30;99.90;;;;;;4788201;30;20516;-70
2022/11/12 12:22:56;;;;;;;50.85;29.42;;;11.30;99.90;;;;;;4783275;29;20127;-70
2022/11/12 12:25:28;;;;;;;57.95;31.10;;;11.50;99.90;;;;;;4785288;30;20130;-70
2022/11/12 12:28:14;;;;;;;51.55;29.00;;;11.70;99.90;;;;;;4793693;29;20108;-69
2022/11/12 12:30:44;;;;;;;51.95;29.05;;;11.80;99.90;;;;;;4794466;30;20112;-70
2022/11/12 12:33:31;;;;;;;58.30;32.00;;;11.80;99.90;;;;;;4793351;30;20130;-71
2022/11/12 12:36:08;;;;;;;43.83;27.02;;;12.00;99.90;;;;;;4794753;29;20356;-68
2022/11/12 12:39:00;;;;;;;47.17;27.38;;;12.10;99.90;;;;;;4794449;30;20104;-68
2022/11/12 12:41:41;;;;;;;46.83;27.15;;;11.80;99.90;;;;;;4794374;30;20086;-68
2022/11/12 12:44:09;;;;;;;49.67;28.23;;;11.70;99.90;;;;;;4793965;29;20043;-68
2022/11/12 12:46:57;;;;;;;67.82;30.58;;;11.70;99.90;;;;;;4794314;30;20055;-68
2022/11/12 12:49:30;;;;;;;43.33;27.75;;;11.80;99.90;;;;;;4794293;30;20066;-69
2022/11/12 12:51:58;;;;;;;46.75;27.73;;;11.90;99.90;;;;;;4794260;29;20058;-69
2022/11/12 12:54:36;;;;;;;54.30;31.90;;;11.90;99.90;;;;;;4793202;30;20094;-69
2022/11/12 12:57:24;;;;;;;52.47;28.45;;;11.90;99.90;;;;;;4794127;29;20354;-69
2022/11/12 12:59:50;;;;;;;50.38;28.80;;;12.00;99.90;;;;;;4793891;29;20054;-69
2022/11/12 13:02:22;;;;;;;52.25;29.80;;;12.20;99.90;;;;;;4794175;29;20438;-69
2022/11/12 13:04:51;;;;;;;47.90;28.48;;;12.30;99.90;;;;;;4793991;30;20050;-69
2022/11/12 13:07:20;;;;;;;43.75;28.08;;;12.50;99.90;;;;;;4794071;29;20086;-69
2022/11/12 13:09:46;;;;;;;46.45;27.80;;;12.50;99.90;;;;;;4793889;30;20051;-67
2022/11/12 13:14:41;;;;;;;48.53;28.45;;;12.30;99.90;;;;;;4793535;29;20087;-68